createdAt,value
2022-12-03T00:02:25.659Z,6.10
2022-12-03T00:04:53.821Z,6.10
2022-12-03T00:07:21.908Z,6.10
2022-12-03T00:09:49.863Z,6.00
2022-12-03T00:12:19.153Z,6.00
2022-12-03T00:14:47.196Z,6.00
2022-12-03T00:17:15.180Z,6.10
2022-12-03T00:19:43.211Z,6.10
2022-12-03T00:22:12.808Z,6.10
2022-12-03T00:24:41.244Z,6.10
2022-12-03T00:27:09.192Z,6.10
2022-12-03T00:29:38.529Z,6.10
2022-12-03T00:32:06.986Z,6.10
2022-12-03T00:34:35.003Z,6.10
2022-12-03T00:37:03.005Z,6.10
2022-12-03T00:39:31.007Z,6.00
2022-12-03T00:41:59.720Z,6.00
2022-12-03T00:44:28.069Z,6.00
2022-12-03T00:46:57.997Z,6.00
2022-12-03T00:49:26.220Z,6.00
2022-12-03T00:51:54.199Z,6.00
2022-12-03T00:54:28.468Z,6.00
2022-12-03T00:56:59.835Z,6.00
2022-12-03T00:59:27.804Z,5.90
2022-12-03T01:01:57.368Z,5.90
2022-12-03T01:04:25.638Z,5.90
2022-12-03T01:06:53.620Z,5.90
2022-12-03T01:09:21.886Z,5.90
2022-12-03T01:11:49.832Z,5.90
2022-12-03T01:14:20.008Z,5.90
2022-12-03T01:16:48.888Z,5.90
2022-12-03T01:19:19.436Z,5.90
2022-12-03T01:21:49.739Z,5.90
2022-12-03T01:24:18.693Z,5.80
2022-12-03T01:26:46.666Z,5.90
2022-12-03T01:29:15.431Z,5.90
2022-12-03T01:32:00.987Z,5.80
2022-12-03T01:34:30.648Z,5.90
2022-12-03T01:37:02.649Z,6.00
2022-12-03T01:39:31.015Z,6.00
2022-12-03T01:41:59.788Z,6.00
2022-12-03T01:44:29.934Z,6.00
2022-12-03T01:46:59.578Z,6.00
2022-12-03T01:49:32.480Z,6.10
2022-12-03T01:52:01.260Z,6.10
2022-12-03T01:54:36.893Z,6.10
2022-12-03T01:57:05.272Z,6.10
2022-12-03T01:59:40.033Z,6.10
2022-12-03T02:02:13.755Z,6.20
2022-12-03T02:04:43.449Z,6.20
2022-12-03T02:07:19.176Z,6.10
2022-12-03T02:09:47.257Z,6.10
2022-12-03T02:12:17.867Z,6.00
2022-12-03T02:14:45.819Z,5.90
2022-12-03T02:17:14.135Z,5.90
2022-12-03T02:19:43.676Z,6.00
2022-12-03T02:22:20.462Z,6.00
2022-12-03T02:24:55.128Z,6.10
2022-12-03T02:27:24.995Z,6.10
2022-12-03T02:29:53.169Z,6.10
2022-12-03T02:32:23.438Z,6.10
2022-12-03T02:34:52.626Z,6.10
2022-12-03T02:37:25.729Z,6.00
2022-12-03T02:39:56.490Z,6.00
2022-12-03T02:42:38.495Z,6.00
2022-12-03T02:45:10.238Z,6.10
2022-12-03T02:47:42.323Z,6.10
2022-12-03T02:50:12.750Z,6.10
2022-12-03T02:52:41.912Z,6.00
2022-12-03T02:55:11.130Z,6.00
2022-12-03T02:57:40.949Z,6.00
2022-12-03T03:00:11.361Z,5.90
2022-12-03T03:02:41.585Z,5.90
2022-12-03T03:05:12.541Z,5.90
2022-12-03T03:07:41.532Z,5.80
2022-12-03T03:10:13.411Z,5.80
2022-12-03T03:12:43.368Z,5.80
2022-12-03T03:15:12.831Z,5.80
2022-12-03T03:17:41.053Z,5.70
2022-12-03T03:20:11.226Z,5.70
2022-12-03T03:22:41.679Z,5.80
2022-12-03T03:25:13.087Z,5.80
2022-12-03T03:27:43.506Z,5.70
2022-12-03T03:30:12.934Z,5.80
2022-12-03T03:32:42.641Z,5.80
2022-12-03T03:35:11.983Z,5.70
2022-12-03T03:37:41.024Z,5.80
2022-12-03T03:40:09.925Z,5.80
2022-12-03T03:42:39.662Z,5.80
2022-12-03T03:45:10.928Z,5.60
2022-12-03T03:47:40.269Z,5.50
2022-12-03T03:50:13.506Z,5.20
2022-12-03T03:52:42.379Z,5.10
2022-12-03T03:55:12.575Z,5.10
2022-12-03T03:57:40.791Z,5.10
2022-12-03T04:00:12.200Z,5.10
2022-12-03T04:02:41.433Z,5.10
2022-12-03T04:05:15.472Z,5.10
2022-12-03T04:07:44.263Z,5.10
2022-12-03T04:10:30.920Z,5.10
2022-12-03T04:12:58.981Z,5.10
2022-12-03T04:15:28.639Z,5.10
2022-12-03T04:18:16.089Z,5.10
2022-12-03T04:20:45.113Z,5.10
2022-12-03T04:23:12.133Z,5.10
2022-12-03T04:25:57.531Z,5.10
2022-12-03T04:28:43.310Z,5.00
2022-12-03T04:31:30.143Z,5.20
2022-12-03T04:34:15.648Z,5.20
2022-12-03T04:36:43.599Z,5.10
2022-12-03T04:39:11.537Z,5.10
2022-12-03T04:41:59.465Z,5.20
2022-12-03T04:44:39.465Z,5.20
2022-12-03T04:47:11.092Z,5.10
2022-12-03T04:49:41.323Z,5.10
2022-12-03T04:52:10.035Z,5.10
2022-12-03T04:54:38.407Z,5.10
2022-12-03T04:57:06.727Z,5.00
2022-12-03T04:59:35.239Z,5.00
2022-12-03T05:02:03.285Z,5.00
2022-12-03T05:04:32.703Z,5.00
2022-12-03T05:07:00.652Z,5.00
2022-12-03T05:09:30.711Z,5.00
2022-12-03T05:11:58.679Z,5.10
2022-12-03T05:14:26.700Z,5.10
2022-12-03T05:16:54.719Z,5.20
2022-12-03T05:19:42.833Z,5.40
2022-12-03T05:22:12.127Z,5.40
2022-12-03T05:24:40.123Z,5.50
2022-12-03T05:27:08.062Z,5.50
2022-12-03T05:29:38.184Z,5.40
2022-12-03T05:32:06.581Z,5.40
2022-12-03T05:34:34.679Z,5.40
2022-12-03T05:37:02.604Z,5.50
2022-12-03T05:39:32.367Z,5.40
2022-12-03T05:42:17.935Z,5.50
2022-12-03T05:44:45.942Z,5.60
2022-12-03T05:47:13.926Z,5.70
2022-12-03T05:49:42.044Z,5.80
2022-12-03T05:52:10.070Z,5.80
2022-12-03T05:54:39.784Z,5.80
2022-12-03T05:57:07.730Z,5.80
2022-12-03T05:59:35.724Z,5.90
2022-12-03T06:02:03.786Z,5.90
2022-12-03T06:04:31.876Z,5.90
2022-12-03T06:06:59.799Z,5.90
2022-12-03T06:09:27.800Z,5.90
2022-12-03T06:11:57.131Z,5.80
2022-12-03T06:14:25.293Z,5.80
2022-12-03T06:16:53.421Z,5.80
2022-12-03T06:19:21.382Z,5.80
2022-12-03T06:21:49.488Z,5.80
2022-12-03T06:24:17.476Z,5.70
2022-12-03T06:26:45.509Z,5.40
2022-12-03T06:29:14.864Z,5.50
2022-12-03T06:31:43.086Z,5.50
2022-12-03T06:34:13.264Z,5.60
2022-12-03T06:36:41.549Z,5.50
2022-12-03T06:39:10.535Z,5.40
2022-12-03T06:41:39.393Z,5.40
2022-12-03T06:44:08.468Z,5.50
2022-12-03T06:46:38.013Z,5.60
2022-12-03T06:49:06.093Z,5.60
2022-12-03T06:51:34.043Z,5.60
2022-12-03T06:54:02.509Z,5.60
2022-12-03T06:56:35.869Z,5.50
2022-12-03T06:59:05.936Z,5.40
2022-12-03T07:01:34.026Z,5.40
2022-12-03T07:04:03.473Z,5.50
2022-12-03T07:06:31.408Z,5.50
2022-12-03T07:08:59.461Z,5.60
2022-12-03T07:11:33.276Z,5.50
2022-12-03T07:14:05.615Z,5.60
2022-12-03T07:16:33.956Z,5.60
2022-12-03T07:19:03.433Z,5.70
2022-12-03T07:21:31.378Z,5.80
2022-12-03T07:23:59.541Z,5.80
2022-12-03T07:26:27.627Z,5.90
2022-12-03T07:28:55.597Z,5.90
2022-12-03T07:31:23.620Z,5.90
2022-12-03T07:33:51.794Z,5.90
2022-12-03T07:36:21.100Z,5.90
2022-12-03T07:38:51.471Z,5.90
2022-12-03T07:41:19.498Z,5.90
2022-12-03T07:43:47.514Z,6.00
2022-12-03T07:46:15.603Z,6.00
2022-12-03T07:48:43.710Z,6.10
2022-12-03T07:51:15.309Z,6.10
2022-12-03T07:54:00.862Z,6.10
2022-12-03T07:56:28.848Z,6.10
2022-12-03T07:58:57.012Z,6.10
2022-12-03T08:01:25.082Z,6.10
2022-12-03T08:03:53.247Z,6.20
2022-12-03T08:06:21.285Z,6.20
2022-12-03T08:08:49.243Z,6.20
2022-12-03T08:11:18.609Z,6.10
2022-12-03T08:13:46.762Z,6.20
2022-12-03T08:16:17.972Z,6.20
2022-12-03T08:18:46.840Z,6.20
2022-12-03T08:21:16.682Z,6.20
2022-12-03T08:23:45.166Z,6.20
2022-12-03T08:26:21.533Z,6.20
2022-12-03T08:28:49.940Z,6.20
2022-12-03T08:31:21.032Z,6.30
2022-12-03T08:33:50.691Z,6.30
2022-12-03T08:36:23.708Z,6.30
2022-12-03T08:38:53.857Z,6.30
2022-12-03T08:41:37.559Z,6.30
2022-12-03T08:44:19.012Z,6.30
2022-12-03T08:46:49.816Z,6.30
2022-12-03T08:49:18.356Z,6.30
2022-12-03T08:51:46.301Z,6.40
2022-12-03T08:54:20.512Z,6.40
2022-12-03T08:56:49.817Z,6.40
2022-12-03T08:59:27.622Z,6.40
2022-12-03T09:01:55.934Z,6.40
2022-12-03T09:04:27.639Z,6.40
2022-12-03T09:06:56.669Z,6.30
2022-12-03T09:09:25.072Z,6.30
2022-12-03T09:11:55.443Z,6.30
2022-12-03T09:14:23.841Z,6.40
2022-12-03T09:16:55.717Z,6.40
2022-12-03T09:19:24.325Z,6.50
2022-12-03T09:21:52.535Z,6.50
2022-12-03T09:24:21.008Z,6.60
2022-12-03T09:26:49.065Z,6.60
2022-12-03T09:29:18.392Z,6.60
2022-12-03T09:31:46.442Z,6.60
2022-12-03T09:34:14.663Z,6.60
2022-12-03T09:36:42.716Z,6.60
2022-12-03T09:39:10.741Z,6.70
2022-12-03T09:41:38.787Z,6.70
2022-12-03T09:44:10.808Z,6.80
2022-12-03T09:46:45.994Z,6.80
2022-12-03T09:49:17.649Z,6.80
2022-12-03T09:51:46.872Z,6.90
2022-12-03T09:54:24.678Z,6.90
2022-12-03T09:56:53.563Z,6.90
2022-12-03T09:59:23.007Z,6.90
2022-12-03T10:01:53.964Z,6.90
2022-12-03T10:04:22.377Z,6.90
2022-12-03T10:06:51.129Z,6.90
2022-12-03T10:09:25.447Z,7.00
2022-12-03T10:11:53.569Z,7.00
2022-12-03T10:14:21.613Z,7.00
2022-12-03T10:16:50.034Z,7.00
2022-12-03T10:19:23.998Z,7.00
2022-12-03T10:21:51.975Z,7.00
2022-12-03T10:24:22.811Z,7.00
2022-12-03T10:26:52.578Z,7.10
2022-12-03T10:29:26.939Z,7.00
2022-12-03T10:32:01.751Z,7.00
2022-12-03T10:34:33.319Z,7.00
2022-12-03T10:37:12.994Z,7.00
2022-12-03T10:39:58.196Z,7.00
2022-12-03T10:42:26.843Z,7.00
2022-12-03T10:45:19.916Z,7.10
2022-12-03T10:48:04.057Z,7.10
2022-12-03T10:50:34.621Z,7.10
2022-12-03T10:53:03.027Z,7.10
2022-12-03T10:55:36.920Z,7.10
2022-12-03T10:58:04.961Z,7.10
2022-12-03T11:00:32.936Z,7.20
2022-12-03T11:03:00.963Z,7.20
2022-12-03T11:05:29.582Z,7.10
2022-12-03T11:07:59.042Z,7.10
2022-12-03T11:10:27.175Z,7.10
2022-12-03T11:13:28.649Z,7.10
2022-12-03T11:15:57.240Z,7.10
2022-12-03T11:19:02.953Z,7.10
2022-12-03T11:21:31.327Z,7.10
2022-12-03T11:24:27.508Z,7.10
2022-12-03T11:27:20.850Z,7.10
2022-12-03T11:29:54.089Z,7.20
2022-12-03T11:33:07.607Z,7.20
2022-12-03T11:36:10.264Z,7.20
2022-12-03T11:38:52.963Z,7.30
2022-12-03T11:41:25.872Z,7.30
2022-12-03T11:44:32.690Z,7.30
2022-12-03T11:47:09.227Z,7.30
2022-12-03T11:49:47.977Z,7.30
2022-12-03T11:52:31.780Z,7.30
2022-12-03T11:55:04.301Z,7.30
2022-12-03T11:57:37.399Z,7.40
2022-12-03T12:00:14.335Z,7.40
2022-12-03T12:02:42.409Z,7.40
2022-12-03T12:05:18.809Z,7.50
2022-12-03T12:07:48.170Z,7.50
2022-12-03T12:10:31.587Z,7.50
2022-12-03T12:13:01.019Z,7.60
2022-12-03T12:15:43.149Z,7.60
2022-12-03T12:18:37.439Z,7.60
2022-12-03T12:21:40.523Z,7.60
2022-12-03T12:24:31.303Z,7.60
2022-12-03T12:27:01.329Z,7.70
2022-12-03T12:29:30.647Z,7.70
2022-12-03T12:32:11.887Z,7.70
2022-12-03T12:34:41.199Z,7.70
2022-12-03T12:37:12.885Z,7.70
2022-12-03T12:39:41.158Z,7.70
2022-12-03T12:42:30.741Z,7.70
2022-12-03T12:45:07.208Z,7.60
2022-12-03T12:47:36.411Z,7.70
2022-12-03T12:50:10.447Z,7.60
2022-12-03T12:52:43.060Z,7.60
2022-12-03T12:55:12.283Z,7.50
2022-12-03T12:57:40.270Z,7.50
2022-12-03T13:00:16.286Z,7.60
2022-12-03T13:02:47.386Z,7.60
2022-12-03T13:05:15.577Z,7.60
2022-12-03T13:07:45.071Z,7.60
2022-12-03T13:10:37.626Z,7.60
2022-12-03T13:13:24.222Z,7.60
2022-12-03T13:16:00.424Z,7.60
2022-12-03T13:18:33.484Z,7.60
2022-12-03T13:21:12.776Z,7.70
2022-12-03T13:23:41.853Z,7.70
2022-12-03T13:26:34.067Z,7.70
2022-12-03T13:29:13.183Z,7.70
2022-12-03T13:31:47.894Z,7.80
2022-12-03T13:34:21.002Z,7.80
2022-12-03T13:36:55.441Z,7.80
2022-12-03T13:39:30.430Z,7.90
2022-12-03T13:42:19.324Z,7.90
2022-12-03T13:44:49.850Z,7.90
2022-12-03T13:47:21.755Z,7.80
2022-12-03T13:49:53.634Z,7.80
2022-12-03T13:52:24.261Z,7.80
2022-12-03T13:54:54.613Z,7.80
2022-12-03T13:57:22.664Z,7.70
2022-12-03T13:59:50.781Z,7.80
2022-12-03T14:02:20.313Z,7.80
2022-12-03T14:04:48.400Z,7.80
2022-12-03T14:07:16.384Z,7.80
2022-12-03T14:09:44.406Z,7.80
2022-12-03T14:12:27.558Z,7.80
2022-12-03T14:14:55.610Z,7.80
2022-12-03T14:17:24.899Z,7.90
2022-12-03T14:19:53.179Z,7.90
2022-12-03T14:22:23.492Z,8.00
2022-12-03T14:24:52.058Z,8.00
2022-12-03T14:27:20.815Z,8.00
2022-12-03T14:29:49.179Z,8.00
2022-12-03T14:32:17.262Z,8.00
2022-12-03T14:34:46.871Z,8.00
2022-12-03T14:37:15.296Z,8.00
2022-12-03T14:39:43.306Z,8.00
2022-12-03T14:42:14.770Z,8.00
2022-12-03T14:44:43.517Z,7.90
2022-12-03T14:47:11.745Z,7.90
2022-12-03T14:49:40.136Z,7.90
2022-12-03T14:52:12.432Z,7.90
2022-12-03T14:54:42.328Z,7.90
2022-12-03T14:57:12.430Z,7.90
2022-12-03T14:59:40.822Z,7.90
2022-12-03T15:02:09.044Z,7.80
2022-12-03T15:04:37.199Z,7.80
2022-12-03T15:07:05.630Z,7.80
2022-12-03T15:09:35.232Z,7.80
2022-12-03T15:12:03.279Z,7.70
2022-12-03T15:14:31.296Z,7.70
2022-12-03T15:16:59.341Z,7.70
2022-12-03T15:19:27.714Z,7.70
2022-12-03T15:21:55.680Z,7.70
2022-12-03T15:24:23.759Z,7.70
2022-12-03T15:26:53.607Z,7.60
2022-12-03T15:29:22.227Z,7.60
2022-12-03T15:31:50.255Z,7.60
2022-12-03T15:34:22.478Z,7.60
2022-12-03T15:36:51.279Z,7.60
2022-12-03T15:39:19.256Z,7.60
2022-12-03T15:41:47.220Z,7.50
2022-12-03T15:44:16.622Z,7.50
2022-12-03T15:46:44.603Z,7.50
2022-12-03T15:49:12.618Z,7.50
2022-12-03T15:51:40.567Z,7.50
2022-12-03T15:54:08.684Z,7.50
2022-12-03T15:56:37.687Z,7.50
2022-12-03T15:59:05.908Z,7.50
2022-12-03T16:01:35.364Z,7.50
2022-12-03T16:04:03.440Z,7.40
2022-12-03T16:06:31.366Z,7.40
2022-12-03T16:08:59.353Z,7.40
2022-12-03T16:11:27.379Z,7.40
2022-12-03T16:13:55.387Z,7.40
2022-12-03T16:16:23.387Z,7.40
2022-12-03T16:18:52.734Z,7.30
2022-12-03T16:21:25.102Z,7.40
2022-12-03T16:23:55.020Z,7.30
2022-12-03T16:26:23.191Z,7.30
2022-12-03T16:28:51.248Z,7.30
2022-12-03T16:31:20.026Z,7.30
2022-12-03T16:33:48.384Z,7.20
2022-12-03T16:36:20.045Z,7.20
2022-12-03T16:38:48.101Z,7.20
2022-12-03T16:41:16.102Z,7.20
2022-12-03T16:43:47.019Z,7.20
2022-12-03T16:46:26.738Z,7.20
2022-12-03T16:48:56.499Z,7.20
2022-12-03T16:51:26.579Z,7.20
2022-12-03T16:53:55.375Z,7.10
2022-12-03T16:56:23.349Z,7.10
2022-12-03T16:58:51.354Z,7.10
2022-12-03T17:01:19.438Z,7.10
2022-12-03T17:03:47.455Z,7.10
2022-12-03T17:06:15.418Z,7.10
2022-12-03T17:08:49.724Z,7.00
2022-12-03T17:11:18.437Z,7.00
2022-12-03T17:13:46.605Z,7.00
2022-12-03T17:16:14.695Z,7.00
2022-12-03T17:18:42.954Z,7.00
2022-12-03T17:21:10.901Z,7.00
2022-12-03T17:23:38.969Z,7.00
2022-12-03T17:26:08.267Z,7.00
2022-12-03T17:28:36.239Z,7.00
2022-12-03T17:31:04.338Z,7.00
2022-12-03T17:33:32.382Z,7.00
2022-12-03T17:36:00.449Z,7.00
2022-12-03T17:38:29.857Z,7.10
2022-12-03T17:40:59.581Z,7.10
2022-12-03T17:43:28.967Z,7.10
2022-12-03T17:45:56.953Z,7.00
2022-12-03T17:48:25.083Z,7.00
2022-12-03T17:50:55.312Z,7.00
2022-12-03T17:53:23.413Z,7.00
2022-12-03T17:55:51.352Z,7.00
2022-12-03T17:58:19.314Z,7.10
2022-12-03T18:00:48.607Z,7.10
2022-12-03T18:03:16.675Z,7.10
2022-12-03T18:05:44.738Z,7.10
2022-12-03T18:08:14.041Z,7.10
2022-12-03T18:10:42.049Z,7.20
2022-12-03T18:13:10.112Z,7.10
2022-12-03T18:15:38.063Z,7.10
2022-12-03T18:18:07.495Z,7.10
2022-12-03T18:20:35.511Z,7.10
2022-12-03T18:23:03.810Z,7.10
2022-12-03T18:25:31.963Z,7.10
2022-12-03T18:27:59.970Z,7.10
2022-12-03T18:30:28.056Z,7.00
2022-12-03T18:32:56.406Z,7.00
2022-12-03T18:35:25.786Z,7.00
2022-12-03T18:37:53.880Z,7.00
2022-12-03T18:40:24.801Z,7.00
2022-12-03T18:42:52.894Z,7.00
2022-12-03T18:45:20.983Z,7.00
2022-12-03T18:47:49.050Z,7.00
2022-12-03T18:50:17.268Z,6.90
2022-12-03T18:52:46.613Z,6.90
2022-12-03T18:55:18.746Z,6.90
2022-12-03T18:57:46.939Z,6.90
2022-12-03T19:00:16.136Z,6.90
2022-12-03T19:05:33.500Z,6.90
2022-12-03T19:08:03.554Z,6.90
2022-12-03T19:10:31.719Z,6.90
2022-12-03T19:12:59.833Z,6.90
2022-12-03T19:15:27.805Z,6.90
2022-12-03T19:17:56.218Z,6.90
2022-12-03T19:20:24.213Z,6.90
2022-12-03T19:22:52.543Z,6.90
2022-12-03T19:25:21.894Z,6.90
2022-12-03T19:27:50.910Z,6.90
2022-12-03T19:30:19.244Z,6.90
2022-12-03T19:32:51.662Z,6.80
2022-12-03T19:35:21.293Z,6.90
2022-12-03T19:37:49.524Z,6.80
2022-12-03T19:40:18.051Z,6.90
2022-12-03T19:42:47.430Z,6.80
2022-12-03T19:45:15.506Z,6.80
2022-12-03T19:47:43.492Z,6.80
2022-12-03T19:50:19.329Z,6.80
2022-12-03T19:52:50.480Z,6.80
2022-12-03T19:55:19.551Z,6.80
2022-12-03T19:57:48.971Z,6.80
2022-12-03T20:00:17.472Z,6.70
2022-12-03T20:02:45.553Z,6.70
2022-12-03T20:05:13.529Z,6.70
2022-12-03T20:07:41.639Z,6.80
2022-12-03T20:10:10.185Z,6.80
2022-12-03T20:12:38.113Z,6.80
2022-12-03T20:15:10.702Z,6.80
2022-12-03T20:17:38.669Z,6.80
2022-12-03T20:20:08.262Z,6.80
2022-12-03T20:22:36.326Z,6.80
2022-12-03T20:25:05.180Z,6.70
2022-12-03T20:27:33.584Z,6.70
2022-12-03T20:30:01.560Z,6.70
2022-12-03T20:32:30.954Z,6.70
2022-12-03T20:34:59.607Z,6.80
2022-12-03T20:37:27.673Z,6.70
2022-12-03T20:39:55.854Z,6.80
2022-12-03T20:42:24.111Z,6.80
2022-12-03T20:44:53.035Z,6.80
2022-12-03T20:47:21.139Z,6.70
2022-12-03T20:49:50.492Z,6.70
2022-12-03T20:52:18.524Z,6.70
2022-12-03T20:54:46.481Z,6.70
2022-12-03T20:57:14.397Z,6.70
2022-12-03T20:59:42.446Z,6.70
2022-12-03T21:02:11.447Z,6.70
2022-12-03T21:04:39.671Z,6.70
2022-12-03T21:07:09.001Z,6.70
2022-12-03T21:09:37.028Z,6.70
2022-12-03T21:12:05.438Z,6.70
2022-12-03T21:14:35.583Z,6.70
2022-12-03T21:17:08.938Z,6.70
2022-12-03T21:19:38.098Z,6.80
2022-12-03T21:22:06.335Z,6.80
2022-12-03T21:24:36.237Z,6.80
2022-12-03T21:27:04.461Z,6.80
2022-12-03T21:29:32.453Z,6.80
2022-12-03T21:32:00.421Z,6.80
2022-12-03T21:34:35.564Z,6.80
2022-12-03T21:37:04.723Z,6.80
2022-12-03T21:39:32.803Z,6.80
2022-12-03T21:42:18.910Z,6.80
2022-12-03T21:44:50.925Z,6.80
2022-12-03T21:47:18.981Z,6.80
2022-12-03T21:49:46.968Z,6.80
2022-12-03T21:52:15.001Z,6.70
2022-12-03T21:54:42.997Z,6.80
2022-12-03T21:57:12.315Z,6.70
2022-12-03T21:59:40.456Z,6.80
2022-12-03T22:02:08.553Z,6.80
2022-12-03T22:04:36.720Z,6.70
2022-12-03T22:07:05.500Z,6.80
2022-12-03T22:09:34.726Z,6.70
2022-12-03T22:12:03.520Z,6.70
2022-12-03T22:14:32.941Z,6.70
2022-12-03T22:17:01.461Z,6.70
2022-12-03T22:19:29.589Z,6.70
2022-12-03T22:21:57.517Z,6.80
2022-12-03T22:24:25.566Z,6.80
2022-12-03T22:26:55.037Z,6.70
2022-12-03T22:29:23.717Z,6.80
2022-12-03T22:31:53.247Z,6.70
2022-12-03T22:34:21.351Z,6.70
2022-12-03T22:36:55.267Z,6.70
2022-12-03T22:39:23.321Z,6.70
2022-12-03T22:41:51.357Z,6.70
2022-12-03T22:44:19.294Z,6.60
2022-12-03T22:46:47.337Z,6.60
2022-12-03T22:49:16.693Z,6.60
2022-12-03T22:51:46.270Z,6.60
2022-12-03T22:54:14.993Z,6.60
2022-12-03T22:56:44.239Z,6.60
2022-12-03T22:59:12.262Z,6.60
2022-12-03T23:01:41.716Z,6.60
2022-12-03T23:04:11.597Z,6.60
2022-12-03T23:06:41.132Z,6.60
2022-12-03T23:09:10.047Z,6.60
2022-12-03T23:11:38.856Z,6.50
2022-12-03T23:14:06.946Z,6.60
2022-12-03T23:16:35.106Z,6.60
2022-12-03T23:19:04.894Z,6.50
2022-12-03T23:21:35.420Z,6.60
2022-12-03T23:24:05.943Z,6.60
2022-12-03T23:26:36.593Z,6.60
2022-12-03T23:29:06.602Z,6.60
2022-12-03T23:31:35.287Z,6.60
2022-12-03T23:34:04.568Z,6.50
2022-12-03T23:36:34.018Z,6.50
2022-12-03T23:39:02.080Z,6.50
2022-12-03T23:41:31.439Z,6.50
2022-12-03T23:43:59.593Z,6.60
2022-12-03T23:46:28.770Z,6.60
2022-12-03T23:48:58.481Z,6.40
2022-12-03T23:51:27.605Z,6.20
2022-12-03T23:53:56.739Z,6.40
2022-12-03T23:56:26.673Z,6.50
2022-12-03T23:58:57.303Z,6.60
